createdAt,value
2018-05-10T00:00:12.180Z,17.62
2018-05-10T00:10:13.233Z,17.5
2018-05-10T00:20:12.241Z,17.28
2018-05-10T00:30:13.211Z,17.14
2018-05-10T00:40:12.225Z,16.98
2018-05-10T00:50:13.137Z,16.85
2018-05-10T01:00:12.215Z,16.65
2018-05-10T01:10:12.193Z,16.71
2018-05-10T01:20:12.271Z,16.45
2018-05-10T01:30:12.270Z,16.35
2018-05-10T01:40:12.222Z,16.07
2018-05-10T01:50:12.213Z,15.94
2018-05-10T02:00:12.195Z,15.7
2018-05-10T02:10:12.236Z,15.54
2018-05-10T02:20:13.212Z,15.51
2018-05-10T02:30:12.197Z,15.31
2018-05-10T02:40:12.211Z,15.35
2018-05-10T02:50:12.203Z,15.31
2018-05-10T03:00:22.767Z,15.51
2018-05-10T03:10:13.223Z,15.72
2018-05-10T03:20:12.205Z,15.79
2018-05-10T03:30:12.189Z,15.96
2018-05-10T03:40:12.242Z,16.03
2018-05-10T03:50:21.794Z,16.01
2018-05-10T04:20:28.569Z,15.99
2018-05-10T04:30:12.242Z,16.12
2018-05-10T04:40:20.617Z,16.53
2018-05-10T04:50:12.205Z,16.85
2018-05-10T05:10:12.206Z,16.5
2018-05-10T05:20:16.515Z,16.52
2018-05-10T05:40:14.285Z,16.45
2018-05-10T06:10:12.194Z,16.25
2018-05-10T06:20:12.210Z,16.14
2018-05-10T06:30:16.061Z,16.25
2018-05-10T06:50:12.256Z,17.74
2018-05-10T07:10:23.835Z,20.84
2018-05-10T07:20:12.273Z,19.76
2018-05-10T07:30:12.247Z,18.57
2018-05-10T07:40:12.325Z,18.29
2018-05-10T07:50:17.423Z,19.08
2018-05-10T08:00:12.244Z,19.06
2018-05-10T08:20:12.245Z,20.99
2018-05-10T09:00:23.574Z,22.54
2018-05-10T09:30:26.761Z,21.99
2018-05-10T09:40:29.293Z,21.72
2018-05-10T09:50:17.563Z,19.93
2018-05-10T10:10:19.423Z,19.1
2018-05-10T10:20:30.682Z,18.33
2018-05-10T10:30:20.588Z,17.97
2018-05-10T11:00:13.330Z,17.48
2018-05-10T11:30:12.986Z,16.4
2018-05-10T12:40:13.556Z,16
2018-05-10T12:50:17.323Z,15.79
2018-05-10T13:00:13.032Z,15.39
2018-05-10T13:10:12.347Z,15.23
2018-05-10T13:20:12.353Z,15.17
2018-05-10T13:30:15.899Z,14.94
2018-05-10T13:40:12.511Z,15.02
2018-05-10T13:50:12.275Z,15.13
2018-05-10T14:00:12.589Z,15.11
2018-05-10T14:10:12.371Z,15.3
2018-05-10T14:20:12.314Z,15.54
2018-05-10T14:30:12.382Z,15.81
2018-05-10T14:40:12.384Z,15.93
2018-05-10T14:50:12.432Z,16.03
2018-05-10T15:00:12.255Z,16.01
2018-05-10T15:10:12.380Z,16.07
2018-05-10T15:20:12.301Z,16.25
2018-05-10T15:30:12.313Z,16.41
2018-05-10T15:40:12.412Z,16.83
2018-05-10T15:50:12.400Z,17.04
2018-05-10T16:00:12.297Z,17.08
2018-05-10T16:10:12.362Z,17.1
2018-05-10T16:20:12.348Z,17.13
2018-05-10T16:30:13.364Z,16.96
2018-05-10T16:40:13.464Z,17.11
2018-05-10T16:50:12.451Z,17
2018-05-10T17:00:12.552Z,17.03
2018-05-10T17:10:12.523Z,16.86
2018-05-10T17:20:12.345Z,16.59
2018-05-10T17:30:12.750Z,16.4
2018-05-10T17:40:12.332Z,15.94
2018-05-10T17:50:12.339Z,15.48
2018-05-10T18:00:12.395Z,15.08
2018-05-10T18:10:12.370Z,14.9
2018-05-10T18:20:12.235Z,14.62
2018-05-10T18:30:12.400Z,14.54
2018-05-10T18:40:12.269Z,14.54
2018-05-10T18:50:12.239Z,14.52
2018-05-10T19:00:12.267Z,14.44
2018-05-10T19:10:12.356Z,14.28
2018-05-10T19:20:12.314Z,14.2
2018-05-10T19:30:12.415Z,14.12
2018-05-10T19:40:12.359Z,13.63
2018-05-10T19:50:12.291Z,13.43
2018-05-10T20:00:12.643Z,13.18
2018-05-10T20:10:12.362Z,12.84
2018-05-10T20:20:12.315Z,12.52
2018-05-10T20:30:12.346Z,12.33
2018-05-10T20:40:12.313Z,12.06
2018-05-10T20:50:14.474Z,11.89
2018-05-10T21:00:12.253Z,11.5
2018-05-10T21:10:12.337Z,11.24
2018-05-10T21:20:15.309Z,10.91
2018-05-10T21:30:12.299Z,10.76
2018-05-10T21:40:12.248Z,10.55
2018-05-10T21:50:12.257Z,10.42
2018-05-10T22:00:12.302Z,10.32
2018-05-10T22:10:12.381Z,10.25
2018-05-10T22:20:12.412Z,10.17
2018-05-10T22:30:12.280Z,9.99
2018-05-10T22:40:12.431Z,9.86
2018-05-10T22:50:12.290Z,9.78
2018-05-10T23:00:12.265Z,9.81
2018-05-10T23:10:12.363Z,9.85
2018-05-10T23:20:12.369Z,9.7
2018-05-10T23:30:12.391Z,9.5
2018-05-10T23:40:12.249Z,9.48
2018-05-10T23:50:12.324Z,9.38
